createdAt,value
2019-03-17T00:01:22.410Z,21
2019-03-17T00:02:13.808Z,20.9
2019-03-17T00:03:01.962Z,20.8
2019-03-17T00:03:52.836Z,20.6
2019-03-17T00:04:43.375Z,20.6
2019-03-17T00:05:33.221Z,20.4
2019-03-17T00:06:23.345Z,20.3
2019-03-17T00:07:13.354Z,20.3
2019-03-17T00:08:02.835Z,20.1
2019-03-17T00:08:54.255Z,20.1
2019-03-17T00:09:42.135Z,20
2019-03-17T00:10:33.830Z,19.9
2019-03-17T00:11:24.200Z,19.9
2019-03-17T00:12:13.682Z,19.8
2019-03-17T00:13:04.337Z,19.7
2019-03-17T00:13:54.907Z,19.6
2019-03-17T00:14:43.585Z,19.5
2019-03-17T00:15:34.743Z,19.4
2019-03-17T00:16:24.800Z,19.4
2019-03-17T00:17:13.834Z,19.3
2019-03-17T00:18:04.742Z,19.2
2019-03-17T00:18:53.693Z,19.1
2019-03-17T00:19:45.107Z,19.1
2019-03-17T00:20:34.851Z,18.9
2019-03-17T00:21:24.403Z,18.9
2019-03-17T00:22:15.389Z,18.8
2019-03-17T00:23:04.226Z,18.9
2019-03-17T00:23:55.594Z,19.6
2019-03-17T00:24:44.052Z,20.3
2019-03-17T00:25:34.891Z,20.9
2019-03-17T00:26:25.242Z,21.4
2019-03-17T00:27:15.106Z,21.8
2019-03-17T00:28:04.523Z,22.1
2019-03-17T00:28:55.174Z,22.2
2019-03-17T00:29:44.647Z,22.4
2019-03-17T00:30:34.952Z,22.5
2019-03-17T00:31:32.583Z,22.6
2019-03-17T00:32:14.883Z,22.8
2019-03-17T00:33:04.902Z,22.9
2019-03-17T00:33:55.573Z,23
2019-03-17T00:34:56.276Z,23.1
2019-03-17T00:35:35.641Z,23.2
2019-03-17T00:36:25.681Z,23.3
2019-03-17T00:37:16.556Z,23.3
2019-03-17T00:38:06.191Z,23.4
2019-03-17T00:38:55.027Z,23.5
2019-03-17T00:39:48.727Z,23.6
2019-03-17T00:40:36.067Z,23.5
2019-03-17T00:41:26.043Z,22.9
2019-03-17T00:42:16.753Z,22.4
2019-03-17T00:43:05.320Z,22
2019-03-17T00:43:57.113Z,21.7
2019-03-17T00:44:46.051Z,21.4
2019-03-17T00:45:36.058Z,21.3
2019-03-17T00:46:26.439Z,21
2019-03-17T00:47:18.947Z,20.9
2019-03-17T00:48:05.995Z,20.8
2019-03-17T00:48:57.148Z,20.6
2019-03-17T00:49:47.685Z,20.5
2019-03-17T00:50:37.292Z,20.5
2019-03-17T00:51:25.722Z,20.3
2019-03-17T00:52:16.192Z,20.1
2019-03-17T00:53:05.818Z,19.9
2019-03-17T00:53:56.738Z,19.8
2019-03-17T00:54:46.526Z,19.7
2019-03-17T00:55:36.289Z,19.6
2019-03-17T00:56:26.346Z,19.4
2019-03-17T00:57:16.184Z,19.4
2019-03-17T00:58:08.550Z,19.3
2019-03-17T00:58:56.224Z,19.2
2019-03-17T00:59:47.628Z,19.1
2019-03-17T01:00:37.152Z,19.1
2019-03-17T01:01:26.744Z,19
2019-03-17T01:02:17.577Z,19
2019-03-17T01:03:07.604Z,18.9
2019-03-17T01:03:58.182Z,18.9
2019-03-17T01:04:59.987Z,18.8
2019-03-17T01:05:39.194Z,18.8
2019-03-17T01:07:17.667Z,18.6
2019-03-17T01:08:08.251Z,18.5
2019-03-17T01:08:57.447Z,18.5
2019-03-17T01:09:48.606Z,18.4
2019-03-17T01:10:37.893Z,18.6
2019-03-17T01:11:26.835Z,19.5
2019-03-17T01:12:18.006Z,20.3
2019-03-17T01:13:08.041Z,20.9
2019-03-17T01:13:57.874Z,21.4
2019-03-17T01:14:48.715Z,21.8
2019-03-17T01:15:38.746Z,22.1
2019-03-17T01:16:29.181Z,22.3
2019-03-17T01:17:18.625Z,22.4
2019-03-17T01:18:09.065Z,22.6
2019-03-17T01:18:57.913Z,22.7
2019-03-17T01:19:48.778Z,22.8
2019-03-17T01:20:38.266Z,22.9
2019-03-17T01:21:29.183Z,23.1
2019-03-17T01:22:18.650Z,23.2
2019-03-17T01:23:08.247Z,23.3
2019-03-17T01:23:58.253Z,23.4
2019-03-17T01:24:49.690Z,23.5
2019-03-17T01:25:39.280Z,23.6
2019-03-17T01:26:28.200Z,23.5
2019-03-17T01:27:19.646Z,22.9
2019-03-17T01:28:09.223Z,22.4
2019-03-17T01:28:58.728Z,22
2019-03-17T01:29:47.903Z,21.7
2019-03-17T01:30:39.533Z,21.4
2019-03-17T01:31:29.884Z,21.2
2019-03-17T01:32:19.455Z,21
2019-03-17T01:33:09.470Z,20.8
2019-03-17T01:33:58.965Z,20.7
2019-03-17T01:34:49.548Z,20.6
2019-03-17T01:35:40.565Z,20.5
2019-03-17T01:36:29.462Z,20.4
2019-03-17T01:37:19.997Z,20.3
2019-03-17T01:38:09.945Z,20.3
2019-03-17T01:39:00.452Z,20.1
2019-03-17T01:39:49.819Z,20.1
2019-03-17T01:40:39.581Z,20
2019-03-17T01:41:28.597Z,19.9
2019-03-17T01:42:23.008Z,19.8
2019-03-17T01:43:09.632Z,19.8
2019-03-17T01:44:00.167Z,19.6
2019-03-17T01:44:50.632Z,19.6
2019-03-17T01:45:40.409Z,19.5
2019-03-17T01:46:30.817Z,19.4
2019-03-17T01:47:21.327Z,19.3
2019-03-17T01:48:11.342Z,19.3
2019-03-17T01:49:00.557Z,19.2
2019-03-17T01:49:50.631Z,19.1
2019-03-17T01:50:40.966Z,19
2019-03-17T01:51:31.059Z,18.9
2019-03-17T01:52:21.658Z,18.9
2019-03-17T01:53:11.250Z,18.8
2019-03-17T01:54:00.974Z,18.8
2019-03-17T01:54:51.614Z,19
2019-03-17T01:55:41.311Z,19.8
2019-03-17T01:56:30.841Z,20.6
2019-03-17T01:57:21.444Z,21.2
2019-03-17T01:58:10.674Z,21.6
2019-03-17T01:59:01.283Z,21.9
2019-03-17T01:59:51.399Z,22.2
2019-03-17T02:00:41.528Z,22.4
2019-03-17T02:01:31.803Z,22.5
2019-03-17T02:02:22.210Z,22.7
2019-03-17T02:03:11.366Z,22.8
2019-03-17T02:04:02.201Z,22.9
2019-03-17T02:04:51.498Z,23.1
2019-03-17T02:05:42.570Z,23.2
2019-03-17T02:06:31.848Z,23.3
2019-03-17T02:07:22.139Z,23.4
2019-03-17T02:08:11.921Z,23.5
2019-03-17T02:09:00.616Z,23.6
2019-03-17T02:09:52.668Z,23.6
2019-03-17T02:10:41.998Z,23.1
2019-03-17T02:11:32.182Z,22.5
2019-03-17T02:12:22.809Z,22.1
2019-03-17T02:13:12.640Z,21.8
2019-03-17T02:14:02.638Z,21.5
2019-03-17T02:14:52.720Z,21.3
2019-03-17T02:16:32.576Z,20.9
2019-03-17T02:17:22.590Z,20.8
2019-03-17T02:18:12.377Z,20.7
2019-03-17T02:19:03.266Z,20.6
2019-03-17T02:19:53.342Z,20.5
2019-03-17T02:20:42.558Z,20.4
2019-03-17T02:21:33.442Z,20.3
2019-03-17T02:22:26.062Z,20.3
2019-03-17T02:23:12.582Z,20.2
2019-03-17T02:24:03.072Z,20.1
2019-03-17T02:24:53.397Z,20
2019-03-17T02:25:43.452Z,19.9
2019-03-17T02:26:33.527Z,19.9
2019-03-17T02:27:23.674Z,19.8
2019-03-17T02:28:14.557Z,19.7
2019-03-17T02:29:03.417Z,19.6
2019-03-17T02:29:54.477Z,19.6
2019-03-17T02:30:43.787Z,19.5
2019-03-17T02:31:34.560Z,19.4
2019-03-17T02:32:24.322Z,19.3
2019-03-17T02:33:13.007Z,19.3
2019-03-17T02:34:04.255Z,19.2
2019-03-17T02:34:53.951Z,19.1
2019-03-17T02:35:48.683Z,19
2019-03-17T02:36:34.615Z,18.9
2019-03-17T02:37:23.681Z,18.9
2019-03-17T02:38:14.827Z,19.1
2019-03-17T02:39:04.027Z,19.8
2019-03-17T02:39:54.060Z,20.5
2019-03-17T02:40:44.987Z,21.1
2019-03-17T02:41:34.429Z,21.6
2019-03-17T02:42:24.590Z,21.9
2019-03-17T02:43:14.335Z,22.1
2019-03-17T02:44:05.139Z,22.3
2019-03-17T02:44:54.504Z,22.4
2019-03-17T02:45:44.806Z,22.6
2019-03-17T02:46:34.872Z,22.8
2019-03-17T02:47:24.948Z,22.9
2019-03-17T02:48:13.921Z,23
2019-03-17T02:49:05.029Z,23.1
2019-03-17T02:49:55.571Z,23.2
2019-03-17T02:50:45.349Z,23.3
2019-03-17T02:51:35.771Z,23.4
2019-03-17T02:52:25.211Z,23.4
2019-03-17T02:53:15.249Z,23.5
2019-03-17T02:54:06.171Z,23.6
2019-03-17T02:54:56.203Z,23.1
2019-03-17T02:55:45.238Z,22.5
2019-03-17T02:56:36.051Z,22.1
2019-03-17T02:57:26.219Z,21.7
2019-03-17T02:58:16.219Z,21.4
2019-03-17T02:59:05.519Z,21.2
2019-03-17T02:59:55.503Z,21.1
2019-03-17T03:00:46.627Z,20.9
2019-03-17T03:01:36.438Z,20.8
2019-03-17T03:02:26.009Z,20.6
2019-03-17T03:03:16.596Z,20.5
2019-03-17T03:04:06.911Z,20.4
2019-03-17T03:07:37.846Z,20.1
2019-03-17T03:08:28.058Z,20
2019-03-17T03:09:18.195Z,19.9
2019-03-17T03:10:09.014Z,19.8
2019-03-17T03:10:58.308Z,19.8
2019-03-17T03:11:48.132Z,19.7
2019-03-17T03:12:39.013Z,19.6
2019-03-17T03:13:27.548Z,19.5
2019-03-17T03:14:18.431Z,19.4
2019-03-17T03:15:08.914Z,19.3
2019-03-17T03:15:59.054Z,19.3
2019-03-17T03:16:48.334Z,19.2
2019-03-17T03:17:38.977Z,19.1
2019-03-17T03:18:27.665Z,19.1
2019-03-17T03:19:18.783Z,19
2019-03-17T03:20:09.275Z,18.9
2019-03-17T03:20:59.029Z,18.8
2019-03-17T03:21:49.214Z,18.8
2019-03-17T03:22:39.736Z,19.3
2019-03-17T03:23:29.350Z,20.1
2019-03-17T03:24:19.727Z,20.7
2019-03-17T03:25:09.838Z,21.3
2019-03-17T03:25:59.357Z,21.8
2019-03-17T03:26:49.012Z,22
2019-03-17T03:27:39.502Z,22.2
2019-03-17T03:28:30.022Z,22.4
2019-03-17T03:29:20.072Z,22.5
2019-03-17T03:30:09.225Z,22.7
2019-03-17T03:30:59.845Z,22.8
2019-03-17T03:31:50.381Z,22.9
2019-03-17T03:32:40.350Z,23
2019-03-17T03:33:30.864Z,23.1
2019-03-17T03:34:20.054Z,23.3
2019-03-17T03:35:10.365Z,23.3
2019-03-17T03:36:17.945Z,23.4
2019-03-17T03:36:49.703Z,23.6
2019-03-17T03:37:40.405Z,23.4
2019-03-17T03:38:30.460Z,22.9
2019-03-17T03:39:19.971Z,22.3
2019-03-17T03:40:10.445Z,21.9
2019-03-17T03:41:00.068Z,21.6
2019-03-17T03:41:50.624Z,21.4
2019-03-17T03:43:30.747Z,20.9
2019-03-17T03:44:20.643Z,20.8
2019-03-17T03:45:10.616Z,20.7
2019-03-17T03:46:00.122Z,20.6
2019-03-17T03:46:50.473Z,20.5
2019-03-17T03:47:40.961Z,20.4
2019-03-17T03:48:30.870Z,20.3
2019-03-17T03:49:20.717Z,20.2
2019-03-17T03:50:10.940Z,20.1
2019-03-17T03:51:01.051Z,20.1
2019-03-17T03:51:50.591Z,19.9
2019-03-17T03:52:40.660Z,19.9
2019-03-17T03:53:31.871Z,19.8
2019-03-17T03:54:21.603Z,19.7
2019-03-17T03:55:11.520Z,19.6
2019-03-17T03:56:01.161Z,19.6
2019-03-17T03:56:51.449Z,19.4
2019-03-17T03:57:41.974Z,19.4
2019-03-17T03:58:31.583Z,19.3
2019-03-17T03:59:21.080Z,19.3
2019-03-17T04:00:11.421Z,19.2
2019-03-17T04:01:01.801Z,19.1
2019-03-17T04:01:52.062Z,19
2019-03-17T04:02:42.498Z,18.9
2019-03-17T04:03:31.682Z,18.9
2019-03-17T04:04:21.130Z,18.8
2019-03-17T04:05:12.848Z,18.9
2019-03-17T04:06:02.038Z,19.4
2019-03-17T04:06:52.258Z,20.2
2019-03-17T04:07:42.569Z,20.8
2019-03-17T04:08:32.322Z,21.4
2019-03-17T04:09:22.573Z,21.8
2019-03-17T04:10:12.393Z,22.1
2019-03-17T04:11:02.516Z,22.3
2019-03-17T04:11:52.470Z,22.4
2019-03-17T04:12:42.707Z,22.6
2019-03-17T04:13:32.003Z,22.7
2019-03-17T04:14:23.056Z,22.8
2019-03-17T04:15:12.989Z,22.9
2019-03-17T04:16:03.101Z,23.1
2019-03-17T04:16:52.492Z,23.2
2019-03-17T04:17:43.226Z,23.3
2019-03-17T04:18:33.064Z,23.3
2019-03-17T04:19:23.458Z,23.4
2019-03-17T04:20:13.184Z,23.5
2019-03-17T04:21:03.507Z,23.2
2019-03-17T04:21:52.681Z,22.6
2019-03-17T04:22:43.182Z,22.2
2019-03-17T04:23:33.061Z,21.8
2019-03-17T04:24:24.135Z,21.5
2019-03-17T04:25:28.317Z,21.3
2019-03-17T04:26:03.834Z,21
2019-03-17T04:26:53.848Z,20.9
2019-03-17T04:27:43.096Z,20.8
2019-03-17T04:28:34.251Z,20.6
2019-03-17T04:29:23.416Z,20.5
2019-03-17T04:30:13.134Z,20.4
2019-03-17T04:31:04.446Z,20.4
2019-03-17T04:31:53.725Z,20.2
2019-03-17T04:32:44.198Z,20.1
2019-03-17T04:33:34.048Z,19.9
2019-03-17T04:34:23.781Z,19.8
2019-03-17T04:35:14.260Z,19.6
2019-03-17T04:36:04.769Z,19.5
2019-03-17T04:36:54.626Z,19.4
2019-03-17T04:37:43.827Z,19.3
2019-03-17T04:38:34.974Z,19.2
2019-03-17T04:39:24.501Z,19.1
2019-03-17T04:40:14.905Z,19.1
2019-03-17T04:41:04.190Z,18.9
2019-03-17T04:41:53.982Z,18.9
2019-03-17T04:42:44.564Z,18.8
2019-03-17T04:43:34.652Z,18.8
2019-03-17T04:45:14.527Z,18.9
2019-03-17T04:46:04.429Z,19.7
2019-03-17T04:46:54.594Z,20.4
2019-03-17T04:47:45.227Z,21
2019-03-17T04:48:34.692Z,21.5
2019-03-17T04:49:25.886Z,21.8
2019-03-17T04:50:14.902Z,22.1
2019-03-17T04:51:05.175Z,22.2
2019-03-17T04:51:55.577Z,22.4
2019-03-17T04:52:45.299Z,22.5
2019-03-17T04:53:35.132Z,22.6
2019-03-17T04:54:25.702Z,22.8
2019-03-17T04:55:15.237Z,22.8
2019-03-17T04:56:05.553Z,22.9
2019-03-17T04:56:55.021Z,23.1
2019-03-17T04:57:45.720Z,23.1
2019-03-17T04:58:35.486Z,23.2
2019-03-17T04:59:25.855Z,23.3
2019-03-17T05:00:15.382Z,23.4
2019-03-17T05:01:05.906Z,23.3
2019-03-17T05:01:56.538Z,22.7
2019-03-17T05:02:46.304Z,22.2
2019-03-17T05:03:36.626Z,21.8
2019-03-17T05:04:25.944Z,21.5
2019-03-17T05:05:15.962Z,21.3
2019-03-17T05:06:06.546Z,21
2019-03-17T05:07:01.215Z,20.8
2019-03-17T05:07:46.428Z,20.7
2019-03-17T05:08:36.721Z,20.6
2019-03-17T05:09:26.750Z,20.4
2019-03-17T05:10:17.135Z,20.4
2019-03-17T05:11:06.143Z,20.4
2019-03-17T05:11:56.371Z,20.3
2019-03-17T05:12:46.983Z,20.1
2019-03-17T05:13:36.513Z,19.9
2019-03-17T05:14:26.613Z,19.8
2019-03-17T05:15:17.240Z,19.6
2019-03-17T05:16:06.395Z,19.6
2019-03-17T05:16:56.788Z,19.4
2019-03-17T05:17:46.770Z,19.3
2019-03-17T05:18:36.870Z,19.3
2019-03-17T05:19:27.456Z,19.1
2019-03-17T05:20:17.287Z,19.1
2019-03-17T05:21:06.817Z,19
2019-03-17T05:21:57.446Z,19
2019-03-17T05:22:47.520Z,19
2019-03-17T05:23:37.522Z,18.9
2019-03-17T05:24:27.382Z,18.9
2019-03-17T05:25:17.451Z,18.8
2019-03-17T05:26:08.047Z,18.8
2019-03-17T05:27:47.851Z,18.6
2019-03-17T05:28:37.382Z,18.5
2019-03-17T05:29:28.077Z,18.4
2019-03-17T05:30:17.632Z,18.4
2019-03-17T05:31:06.690Z,18.3
2019-03-17T05:31:58.080Z,18.6
2019-03-17T05:32:47.894Z,19.4
2019-03-17T05:33:38.734Z,20.2
2019-03-17T05:34:28.080Z,20.8
2019-03-17T05:35:17.839Z,21.4
2019-03-17T05:36:07.931Z,21.7
2019-03-17T05:37:12.764Z,21.9
2019-03-17T05:37:48.100Z,22.2
2019-03-17T05:38:38.659Z,22.3
2019-03-17T05:39:27.942Z,22.4
2019-03-17T05:40:18.226Z,22.6
2019-03-17T05:41:08.226Z,22.8
2019-03-17T05:41:58.761Z,22.9
2019-03-17T05:42:49.558Z,23
2019-03-17T05:43:38.611Z,23.2
2019-03-17T05:44:29.556Z,23.3
2019-03-17T05:45:19.553Z,23.4
2019-03-17T05:46:09.145Z,23.4
2019-03-17T05:46:58.881Z,23.4
2019-03-17T05:47:48.946Z,22.8
2019-03-17T05:48:38.986Z,22.3
2019-03-17T05:49:29.042Z,21.9
2019-03-17T05:50:19.726Z,21.6
2019-03-17T05:51:09.721Z,21.3
2019-03-17T05:52:48.980Z,20.9
2019-03-17T05:53:42.605Z,20.8
2019-03-17T05:54:29.844Z,20.6
2019-03-17T05:55:20.038Z,20.5
2019-03-17T05:56:10.161Z,20.4
2019-03-17T05:57:00.010Z,20.3
2019-03-17T05:57:50.235Z,20.3
2019-03-17T05:58:40.295Z,20.2
2019-03-17T05:59:30.140Z,20.1
2019-03-17T06:00:19.608Z,20
2019-03-17T06:01:09.600Z,19.9
2019-03-17T06:01:59.465Z,19.8
2019-03-17T06:02:49.486Z,19.8
2019-03-17T06:05:37.735Z,19.5
2019-03-17T06:06:27.140Z,19.4
2019-03-17T06:07:27.041Z,19.3
2019-03-17T06:08:07.586Z,19.3
2019-03-17T06:08:58.250Z,19.2
2019-03-17T06:09:46.836Z,19.1
2019-03-17T06:10:37.162Z,19.1
2019-03-17T06:11:27.524Z,19
2019-03-17T06:12:17.560Z,18.9
2019-03-17T06:13:08.755Z,18.9
2019-03-17T06:14:00.048Z,18.8
2019-03-17T06:14:48.392Z,18.9
2019-03-17T06:15:38.096Z,19.7
2019-03-17T06:16:27.585Z,20.4
2019-03-17T06:17:18.477Z,21.1
2019-03-17T06:18:08.322Z,21.6
2019-03-17T06:18:58.594Z,21.9
2019-03-17T06:19:48.939Z,22.1
2019-03-17T06:20:38.439Z,22.3
2019-03-17T06:21:29.366Z,22.5
2019-03-17T06:22:18.049Z,22.8
2019-03-17T06:23:08.437Z,22.9
2019-03-17T06:23:58.111Z,23
2019-03-17T06:24:48.543Z,23.2
2019-03-17T06:25:39.031Z,23.3
2019-03-17T06:26:29.120Z,23.4
2019-03-17T06:27:19.208Z,23.6
2019-03-17T06:28:09.534Z,23.6
2019-03-17T06:28:59.376Z,23.1
2019-03-17T06:29:48.556Z,22.6
2019-03-17T06:30:39.261Z,22.1
2019-03-17T06:31:29.781Z,21.8
2019-03-17T06:32:19.298Z,21.5
2019-03-17T06:33:09.308Z,21.3
2019-03-17T06:34:00.012Z,21.1
2019-03-17T06:34:49.484Z,20.9
2019-03-17T06:35:39.493Z,20.8
2019-03-17T06:36:30.191Z,20.7
2019-03-17T06:37:32.954Z,20.6
2019-03-17T06:38:08.863Z,20.4
2019-03-17T06:38:59.453Z,20.4
2019-03-17T06:39:49.503Z,20.3
2019-03-17T06:40:39.608Z,20.2
2019-03-17T06:41:29.649Z,20.1
2019-03-17T06:42:20.235Z,20.1
2019-03-17T06:43:09.770Z,19.9
2019-03-17T06:44:00.088Z,19.9
2019-03-17T06:44:50.450Z,19.8
2019-03-17T06:45:39.638Z,19.8
2019-03-17T06:46:29.151Z,19.6
2019-03-17T06:47:20.395Z,19.6
2019-03-17T06:48:10.392Z,19.5
2019-03-17T06:49:00.782Z,19.4
2019-03-17T06:49:50.531Z,19.3
2019-03-17T06:50:40.295Z,19.3
2019-03-17T06:51:31.030Z,19.2
2019-03-17T06:52:20.960Z,19.1
2019-03-17T06:53:10.760Z,19.1
2019-03-17T06:54:04.488Z,19
2019-03-17T06:54:50.869Z,18.9
2019-03-17T06:55:41.187Z,18.9
2019-03-17T06:56:30.964Z,19.1
2019-03-17T06:57:20.752Z,19.9
2019-03-17T06:58:09.988Z,20.7
2019-03-17T06:59:00.647Z,21.3
2019-03-17T06:59:51.268Z,21.7
2019-03-17T07:00:40.432Z,22
2019-03-17T07:01:31.617Z,22.3
2019-03-17T07:02:21.939Z,22.5
2019-03-17T07:03:11.710Z,22.8
2019-03-17T07:05:37.327Z,23.3
2019-03-17T07:06:27.127Z,23.4
2019-03-17T07:07:17.174Z,23.6
2019-03-17T07:08:08.007Z,23.7
2019-03-17T07:08:58.374Z,23.6
2019-03-17T07:09:47.606Z,23
2019-03-17T07:10:37.689Z,22.5
2019-03-17T07:11:26.972Z,22.1
2019-03-17T07:12:17.606Z,21.8
2019-03-17T07:13:08.414Z,21.5
2019-03-17T07:13:57.953Z,21.3
2019-03-17T07:15:38.034Z,21
2019-03-17T07:16:27.854Z,20.9
2019-03-17T07:17:20.739Z,20.8
2019-03-17T07:18:07.174Z,20.6
2019-03-17T07:18:58.791Z,20.6
2019-03-17T07:19:47.795Z,20.4
2019-03-17T07:20:39.027Z,20.4
2019-03-17T07:21:28.728Z,20.3
2019-03-17T07:22:18.559Z,20.2
2019-03-17T07:23:08.365Z,20.1
2019-03-17T07:23:58.524Z,20.1
2019-03-17T07:24:47.956Z,19.9
2019-03-17T07:25:38.276Z,19.9
2019-03-17T07:26:28.338Z,19.8
2019-03-17T07:27:17.933Z,19.8
2019-03-17T07:28:07.899Z,19.7
2019-03-17T07:28:59.563Z,19.6
2019-03-17T07:29:52.266Z,19.5
2019-03-17T07:30:39.413Z,19.4
2019-03-17T07:31:29.243Z,19.4
2019-03-17T07:32:19.445Z,19.3
2019-03-17T07:33:09.055Z,19.2
2019-03-17T07:34:00.140Z,19.2
2019-03-17T07:34:49.425Z,19.1
2019-03-17T07:35:39.765Z,19
2019-03-17T07:36:29.313Z,18.9
2019-03-17T07:37:19.104Z,18.9
2019-03-17T07:38:09.169Z,18.8
2019-03-17T07:39:10.735Z,18.8
2019-03-17T07:40:39.689Z,18.6
2019-03-17T07:41:29.900Z,18.6
2019-03-17T07:42:19.734Z,18.5
2019-03-17T07:43:10.255Z,18.4
2019-03-17T07:44:14.747Z,18.4
2019-03-17T07:44:50.182Z,18.3
2019-03-17T07:45:40.784Z,18.3
2019-03-17T07:46:45.280Z,18.2
2019-03-17T07:47:20.619Z,18.1
2019-03-17T07:48:10.650Z,18.1
2019-03-17T07:49:01.284Z,18
2019-03-17T07:49:51.107Z,17.9
2019-03-17T07:50:39.829Z,17.9
2019-03-17T07:51:30.619Z,17.9
2019-03-17T07:52:20.748Z,17.8
2019-03-17T07:53:09.600Z,17.8
2019-03-17T07:54:01.047Z,17.8
2019-03-17T07:54:50.311Z,17.7
2019-03-17T07:55:40.209Z,17.6
2019-03-17T07:56:31.539Z,17.6
2019-03-17T07:57:20.264Z,17.5
2019-03-17T07:58:10.305Z,17.4
2019-03-17T07:58:59.939Z,17.4
2019-03-17T07:59:51.271Z,17.4
2019-03-17T08:00:40.211Z,17.3
2019-03-17T08:01:31.694Z,17.3
2019-03-17T08:02:20.696Z,17.3
2019-03-17T08:03:11.123Z,17.2
2019-03-17T08:04:02.128Z,17.1
2019-03-17T08:04:55.219Z,17.1
2019-03-17T08:05:41.906Z,17.1
2019-03-17T08:08:18.233Z,16.9
2019-03-17T08:09:02.486Z,16.9
2019-03-17T08:09:52.748Z,16.9
2019-03-17T08:10:57.086Z,16.8
2019-03-17T08:11:32.635Z,16.8
2019-03-17T08:12:22.068Z,16.8
2019-03-17T08:13:12.511Z,16.8
2019-03-17T08:14:01.386Z,16.7
2019-03-17T08:14:52.274Z,16.7
2019-03-17T08:15:42.170Z,16.6
2019-03-17T08:16:32.403Z,16.6
2019-03-17T08:17:22.710Z,16.6
2019-03-17T08:18:12.492Z,16.6
2019-03-17T08:19:03.175Z,16.5
2019-03-17T08:19:52.692Z,16.4
2019-03-17T08:20:42.397Z,16.4
2019-03-17T08:21:32.995Z,16.4
2019-03-17T08:22:22.842Z,16.4
2019-03-17T08:23:13.170Z,16.4
2019-03-17T10:06:36.698Z,14.3
2019-03-17T10:07:26.808Z,14.3
2019-03-17T10:08:17.589Z,14.3
2019-03-17T10:09:08.001Z,14.3
2019-03-17T10:09:57.686Z,14.3
2019-03-17T10:10:47.251Z,14.3
2019-03-17T10:11:36.808Z,14.3
2019-03-17T10:12:27.990Z,14.3
2019-03-17T10:13:18.564Z,14.3
2019-03-17T10:14:07.988Z,14.3
2019-03-17T10:14:58.359Z,14.3
2019-03-17T10:15:47.551Z,14.3
2019-03-17T10:16:37.931Z,14.3
2019-03-17T10:17:28.354Z,14.2
2019-03-17T10:18:18.067Z,14.2
2019-03-17T10:19:08.371Z,14.2
2019-03-17T10:19:57.368Z,14.2
2019-03-17T10:20:45.883Z,14.2
2019-03-17T10:21:38.628Z,14.2
2019-03-17T10:22:28.938Z,14.2
2019-03-17T10:23:18.090Z,14.2
2019-03-17T10:24:08.477Z,14.2
2019-03-17T10:24:58.749Z,14.2
2019-03-17T10:25:48.313Z,14.2
2019-03-17T10:26:38.609Z,14.2
2019-03-17T10:27:28.426Z,14.3
2019-03-17T10:28:18.854Z,14.3
2019-03-17T10:29:22.910Z,14.2
2019-03-17T10:29:59.760Z,14.2
2019-03-17T10:30:49.467Z,14.2
2019-03-17T10:31:39.810Z,14.3
2019-03-17T10:32:29.308Z,14.2
2019-03-17T10:33:19.650Z,14.3
2019-03-17T10:34:09.468Z,14.3
2019-03-17T10:34:59.068Z,14.3
2019-03-17T10:35:49.830Z,14.2
2019-03-17T10:36:39.340Z,14.2
2019-03-17T10:37:29.418Z,14.2
2019-03-17T10:38:20.000Z,14.2
2019-03-17T10:39:20.895Z,14.2
2019-03-17T10:40:00.322Z,14.2
2019-03-17T10:40:49.455Z,14.2
2019-03-17T10:41:38.925Z,14.2
2019-03-17T10:42:29.625Z,14.2
2019-03-17T10:43:19.941Z,14.2
2019-03-17T10:44:10.155Z,14.2
2019-03-17T10:44:58.614Z,14.2
2019-03-17T10:45:50.057Z,14.2
2019-03-17T10:46:39.305Z,14.2
2019-03-17T10:47:30.155Z,14.2
2019-03-17T10:48:19.319Z,14.2
2019-03-17T10:49:09.562Z,14.2
2019-03-17T10:50:00.824Z,14.2
2019-03-17T10:50:58.142Z,14.1
2019-03-17T10:51:40.214Z,14.2
2019-03-17T10:52:30.409Z,14.1
2019-03-17T10:53:20.304Z,14.1
2019-03-17T10:54:09.887Z,14.1
2019-03-17T10:54:59.634Z,14.1
2019-03-17T10:55:49.947Z,14.1
2019-03-17T10:56:40.301Z,14.1
2019-03-17T10:57:30.347Z,14.1
2019-03-17T10:58:20.426Z,14.1
2019-03-17T10:59:10.169Z,14.1
2019-03-17T10:59:59.849Z,14.1
2019-03-17T11:00:49.835Z,14.1
2019-03-17T11:01:39.939Z,14.2
2019-03-17T11:02:30.778Z,14.2
2019-03-17T11:03:20.475Z,14.2
2019-03-17T11:04:10.959Z,14.2
2019-03-17T11:05:00.334Z,14.3
2019-03-17T11:05:50.461Z,14.2
2019-03-17T11:06:40.246Z,14.3
2019-03-17T11:07:31.087Z,14.3
2019-03-17T11:08:20.578Z,14.2
2019-03-17T11:09:26.802Z,14.2
2019-03-17T11:10:00.862Z,14.2
2019-03-17T11:10:51.323Z,14.2
2019-03-17T11:11:41.623Z,14.2
2019-03-17T11:12:31.768Z,14.2
2019-03-17T11:13:21.698Z,14.1
2019-03-17T11:14:11.631Z,14.1
2019-03-17T11:15:01.835Z,14.2
2019-03-17T11:15:52.403Z,14.1
2019-03-17T11:16:42.207Z,14.1
2019-03-17T11:17:33.083Z,14.1
2019-03-17T11:18:22.526Z,14.1
2019-03-17T11:19:12.657Z,14.1
2019-03-17T11:20:01.863Z,14.1
2019-03-17T11:20:52.026Z,14.1
2019-03-17T11:21:42.596Z,14.1
2019-03-17T11:22:30.935Z,14.1
2019-03-17T11:23:23.014Z,14.1
2019-03-17T11:24:11.947Z,14.1
2019-03-17T11:25:02.952Z,14.1
2019-03-17T11:25:52.337Z,14.1
2019-03-17T11:26:42.225Z,14.1
2019-03-17T11:27:33.562Z,14.1
2019-03-17T11:28:23.697Z,14.1
2019-03-17T11:29:13.740Z,14.1
2019-03-17T11:30:03.490Z,14.1
2019-03-17T11:30:53.560Z,14.1
2019-03-17T11:31:43.295Z,14
2019-03-17T11:32:33.585Z,14
2019-03-17T11:33:23.430Z,14
2019-03-17T11:34:13.233Z,14
2019-03-17T11:35:03.547Z,14
2019-03-17T11:35:53.859Z,14
2019-03-17T11:36:43.439Z,14
2019-03-17T11:37:34.077Z,14
2019-03-17T11:38:23.562Z,14
2019-03-17T11:39:13.964Z,14
2019-03-17T11:40:03.448Z,14
2019-03-17T11:40:53.667Z,14
2019-03-17T11:41:43.709Z,14
2019-03-17T11:42:34.114Z,14
2019-03-17T11:43:23.869Z,13.9
2019-03-17T11:44:14.291Z,13.9
2019-03-17T11:45:04.293Z,14
2019-03-17T11:45:54.907Z,13.9
2019-03-17T11:46:43.878Z,14
2019-03-17T11:47:33.946Z,13.9
2019-03-17T11:48:25.031Z,13.9
2019-03-17T11:49:14.243Z,13.9
2019-03-17T11:50:04.985Z,13.9
2019-03-17T11:50:54.856Z,13.9
2019-03-17T11:51:45.339Z,13.9
2019-03-17T11:52:34.481Z,13.9
2019-03-17T11:53:24.850Z,14
2019-03-17T11:54:15.251Z,14
2019-03-17T11:55:05.346Z,14
2019-03-17T11:55:55.068Z,14
2019-03-17T11:56:43.985Z,14
2019-03-17T11:57:34.885Z,14
2019-03-17T11:58:25.735Z,14
2019-03-17T11:59:15.828Z,14
2019-03-17T12:00:05.649Z,14
2019-03-17T12:00:54.581Z,14
2019-03-17T12:01:44.893Z,14
2019-03-17T12:02:35.070Z,14
2019-03-17T12:03:24.720Z,14
2019-03-17T12:04:15.337Z,14
2019-03-17T12:06:37.114Z,14
2019-03-17T12:07:27.219Z,14
2019-03-17T12:08:17.308Z,14
2019-03-17T12:09:10.478Z,14
2019-03-17T12:09:58.871Z,14
2019-03-17T12:10:47.674Z,14
2019-03-17T12:11:36.659Z,14
2019-03-17T12:12:42.949Z,14
2019-03-17T12:13:17.284Z,14
2019-03-17T12:14:11.326Z,14
2019-03-17T12:14:56.761Z,14
2019-03-17T12:15:48.043Z,14
2019-03-17T12:16:37.963Z,14
2019-03-17T12:17:27.891Z,14
2019-03-17T12:18:17.670Z,14
2019-03-17T12:19:08.814Z,14
2019-03-17T12:19:58.471Z,14.1
2019-03-17T12:20:48.390Z,14.1
2019-03-17T12:21:38.498Z,14.1
2019-03-17T12:22:28.476Z,14.1
2019-03-17T12:23:17.175Z,14.1
2019-03-17T12:24:08.385Z,14.1
2019-03-17T12:24:58.618Z,14.1
2019-03-17T12:25:48.743Z,14.1
2019-03-17T12:26:39.075Z,14.1
2019-03-17T12:27:29.355Z,14.1
2019-03-17T12:28:19.611Z,14.1
2019-03-17T12:29:08.745Z,14.1
2019-03-17T12:29:59.052Z,14.1
2019-03-17T12:30:48.554Z,14.1
2019-03-17T12:31:39.778Z,14.1
2019-03-17T12:32:29.047Z,14.1
2019-03-17T12:33:19.397Z,14.1
2019-03-17T12:34:08.700Z,14.1
2019-03-17T12:34:59.615Z,14.1
2019-03-17T12:35:49.505Z,14.1
2019-03-17T12:36:39.270Z,14.1
2019-03-17T12:37:28.517Z,14.1
2019-03-17T12:38:19.115Z,14.1
2019-03-17T12:39:10.030Z,14.1
2019-03-17T12:40:11.584Z,14
2019-03-17T12:40:49.321Z,14.1
2019-03-17T12:41:42.310Z,14
2019-03-17T12:42:29.704Z,14.1
2019-03-17T12:43:23.567Z,14
2019-03-17T12:44:10.144Z,14.1
2019-03-17T12:44:59.055Z,14
2019-03-17T12:45:50.191Z,14
2019-03-17T12:46:39.667Z,14.1
2019-03-17T12:47:29.444Z,14
2019-03-17T12:48:20.099Z,14
2019-03-17T12:49:09.879Z,14
2019-03-17T12:50:00.385Z,14
2019-03-17T12:50:50.019Z,13.9
2019-03-17T12:51:40.325Z,14
2019-03-17T12:52:30.121Z,14
2019-03-17T12:53:20.194Z,14
2019-03-17T12:54:09.784Z,14
2019-03-17T12:55:00.727Z,14
2019-03-17T12:55:50.373Z,14
2019-03-17T12:56:40.729Z,13.9
2019-03-17T12:57:29.636Z,13.9
2019-03-17T12:58:23.634Z,13.9
2019-03-17T12:59:10.353Z,14
2019-03-17T13:00:01.359Z,14
2019-03-17T13:00:50.705Z,14
2019-03-17T13:01:40.008Z,14
2019-03-17T13:02:30.931Z,14
2019-03-17T13:03:21.185Z,13.9
2019-03-17T13:04:11.858Z,13.9
2019-03-17T13:05:00.871Z,13.9
2019-03-17T13:05:51.641Z,13.9
2019-03-17T13:06:41.492Z,13.9
2019-03-17T13:07:31.453Z,13.9
2019-03-17T13:08:21.068Z,13.9
2019-03-17T13:09:11.052Z,13.9
2019-03-17T13:10:01.385Z,13.9
2019-03-17T13:10:51.861Z,13.9
2019-03-17T13:11:41.083Z,13.9